Christchurch, Virginia
Current Conditions -  °F | °C
As of 10:55 AM on Friday 24 Oct 2014 (Local Time) from KW75 Reporting Station
Clear Clear  
Wind Chill: 58°   Ceiling: Unl
Heat Index: 58°   Visibility: 10mi
Dew Point: 46°   Wind: 12mph
Humidity: 64%   Direction: 320°NW
Pressure: 29.97"   Gusts: 21mph
Location:  37.6°N, 76.53°W
Report Text: KW75 241455Z AUTO 32010G18KT 10SM CLR 15/08 A2997 RMK AO1 T01470080
Loading
Personal Weather Stations






























Interactive Weather Map
Tropical Storm Tracking
New forecast layout! Learn more

10-Day Weather Forecast

Advertisements
Track Severe Weather on mobile